Meadowbrook, West Virginia
Current Conditions -  °F | °C
As of 4:53 AM on Sunday 26 Oct 2014 (Local Time) from KCKB Reporting Station
Clear Clear  
Wind Chill: 50°   Ceiling: Unl
Heat Index: 50°   Visibility: 10mi
Dew Point: 35°   Wind: 3mph
Humidity: 57%   Direction: 270°W
Pressure: 29.86"   Gusts: NA
Location:  39.35°N, 80.31°W
Report Text: KCKB 260853Z AUTO 27003KT 10SM CLR 10/02 A2986 RMK AO2 SLP104 T01000017 53005
Loading
Personal Weather Stations






























Interactive Weather Map
Tropical Storm Tracking
New forecast layout! Learn more

10-Day Weather Forecast

Advertisements
Track Severe Weather on mobile